Time;durP1;ratioP1;P1;durP2;ratioP2;P2;SDS_P1;SDS_P2;PMS_P1;PMS_P2;Temp;Humidity;BMP_temperature;BMP_pressure;BME280_temperature;BME280_humidity;BME280_pressure;Samples;Min_cycle;Max_cycle;Signal;HPM_P1;HPM_P2
2021/11/17 02:25:55;;;;;;;;;;;;;;;13.86;69.92;101587.38;1049309;28;752;-64
2021/11/17 02:26:45;;;;;;;;;;;;;;;13.87;70.25;101586.44;1048382;28;777;-63
2021/11/17 02:27:36;;;;;;;;;;;;;;;13.88;70.29;101590.81;1049159;28;690;-63
2021/11/17 02:28:26;;;;;;;;;;;;;;;13.87;70.36;101592.66;1049401;28;789;-64
2021/11/17 02:29:17;;;;;;;;;;;;;;;13.88;70.00;101593.50;1051206;28;1732;-63
2021/11/17 02:30:07;;;;;;;;;;;;;;;13.88;70.14;101588.16;1052885;28;871;-63
2021/11/17 02:30:58;;;;;;;;;;;;;;;13.87;70.59;101591.78;1052450;28;865;-63
2021/11/17 02:31:48;;;;;;;;;;;;;;;13.86;70.32;101593.59;1051839;28;1410;-63
2021/11/17 02:32:39;;;;;;;;;;;;;;;13.86;69.73;101587.38;1048834;28;823;-63
2021/11/17 02:33:29;;;;;;;;;;;;;;;13.85;70.03;101591.03;1049070;28;1149;-63
2021/11/17 02:34:19;;;;;;;;;;;;;;;13.85;70.38;101589.19;1048902;28;761;-63
2021/11/17 02:35:10;;;;;;;;;;;;;;;13.85;69.71;101591.03;1048991;28;757;-64
2021/11/17 02:36:00;;;;;;;;;;;;;;;13.86;69.41;101593.59;1049184;28;712;-63
2021/11/17 02:36:51;;;;;;;;;;;;;;;13.87;69.36;101594.47;1048904;28;1061;-63
2021/11/17 02:37:41;;;;;;;;;;;;;;;13.85;69.61;101591.88;1049049;28;1041;-63
2021/11/17 02:38:32;;;;;;;;;;;;;;;13.86;69.86;101598.97;1048921;28;703;-63
2021/11/17 02:39:22;;;;;;;;;;;;;;;13.85;69.98;101594.56;1052079;28;1772;-63
2021/11/17 02:40:13;;;;;;;;;;;;;;;13.86;70.01;101590.94;1052257;28;815;-63
2021/11/17 02:41:03;;;;;;;;;;;;;;;13.85;69.38;101591.03;1052580;28;811;-63
2021/11/17 02:41:54;;;;;;;;;;;;;;;13.85;70.34;101588.34;1052578;28;817;-64
2021/11/17 02:42:44;;;;;;;;;;;;;;;13.85;70.21;101596.38;1052707;28;791;-64
2021/11/17 02:43:35;;;;;;;;;;;;;;;13.84;70.15;101594.66;1049478;28;2119;-63
2021/11/17 02:44:25;;;;;;;;;;;;;;;13.85;69.83;101599.06;1048619;28;685;-63
2021/11/17 02:45:15;;;;;;;;;;;;;;;13.85;69.45;101593.69;1048375;28;735;-64
2021/11/17 02:46:06;;;;;;;;;;;;;;;13.85;70.11;101591.03;1048519;28;783;-63
2021/11/17 02:46:56;;;;;;;;;;;;;;;13.84;70.34;101597.34;1049037;28;915;-63
2021/11/17 02:47:47;;;;;;;;;;;;;;;13.84;69.47;101592.84;1048868;28;952;-63
2021/11/17 02:48:37;;;;;;;;;;;;;;;13.86;70.06;101592.75;1049219;28;782;-63
2021/11/17 02:49:28;;;;;;;;;;;;;;;13.85;69.40;101586.53;1048992;28;622;-63
2021/11/17 02:50:18;;;;;;;;;;;;;;;13.85;69.28;101591.03;1048522;28;810;-64
2021/11/17 02:51:09;;;;;;;;;;;;;;;13.84;70.34;101586.63;1048910;28;731;-63
2021/11/17 02:51:59;;;;;;;;;;;;;;;13.84;69.85;101591.97;1048472;28;942;-63
2021/11/17 02:52:49;;;;;;;;;;;;;;;13.84;69.72;101591.97;1049011;28;1044;-63
2021/11/17 02:53:40;;;;;;;;;;;;;;;13.83;70.05;101588.44;1048449;28;619;-63
2021/11/17 02:54:32;;;;;;;;;;;;;;;13.84;69.55;101589.31;1048596;28;665;-63
2021/11/17 02:55:22;;;;;;;;;;;;;;;13.84;69.91;101598.19;1048519;28;750;-63
2021/11/17 02:56:12;;;;;;;;;;;;;;;13.83;70.17;101593.81;1048472;28;1898;-63
2021/11/17 02:57:04;;;;;;;;;;;;;;;13.84;69.79;101591.97;1048389;28;743;-64
2021/11/17 02:57:54;;;;;;;;;;;;;;;13.83;69.95;101596.47;1048498;28;749;-63
2021/11/17 02:58:44;;;;;;;;;;;;;;;13.83;70.06;101598.31;1048646;28;926;-63
2021/11/17 02:59:35;;;;;;;;;;;;;;;13.83;69.62;101595.63;1048453;28;802;-64
2021/11/17 03:00:25;;;;;;;;;;;;;;;13.84;69.96;101602.69;1048412;28;906;-64
2021/11/17 03:01:16;;;;;;;;;;;;;;;13.82;69.71;101592.09;1048349;28;744;-63
2021/11/17 03:02:06;;;;;;;;;;;;;;;13.83;70.16;101595.63;1048552;28;795;-63
2021/11/17 03:02:57;;;;;;;;;;;;;;;13.82;70.46;101593.91;1048257;28;726;-63
2021/11/17 03:03:47;;;;;;;;;;;;;;;13.83;69.76;101593.81;1048463;28;681;-63
2021/11/17 03:04:39;;;;;;;;;;;;;;;13.84;69.72;101594.66;1048559;28;897;-64
2021/11/17 03:05:29;;;;;;;;;;;;;;;13.83;69.90;101592.94;1048677;28;732;-63
2021/11/17 03:06:20;;;;;;;;;;;;;;;13.84;70.26;101594.66;1048310;28;737;-64
2021/11/17 03:07:10;;;;;;;;;;;;;;;13.84;69.66;101594.66;1048547;28;821;-63
2021/11/17 03:08:01;;;;;;;;;;;;;;;13.83;69.85;101582.22;1048246;28;793;-63
2021/11/17 03:08:51;;;;;;;;;;;;;;;13.82;69.59;101589.41;1048534;28;1618;-64
2021/11/17 03:09:42;;;;;;;;;;;;;;;13.83;70.20;101593.81;1049155;28;713;-63
2021/11/17 03:10:32;;;;;;;;;;;;;;;13.82;69.86;101577.81;1048939;28;956;-63
2021/11/17 03:11:22;;;;;;;;;;;;;;;13.83;69.82;101587.59;1049089;28;706;-63
2021/11/17 03:12:13;;;;;;;;;;;;;;;13.83;69.46;101587.59;1049025;28;705;-63
2021/11/17 03:13:03;;;;;;;;;;;;;;;13.83;69.48;101582.22;1049168;28;793;-63
2021/11/17 03:13:54;;;;;;;;;;;;;;;13.83;70.18;101583.09;1049004;28;947;-63
2021/11/17 03:14:44;;;;;;;;;;;;;;;13.84;69.82;101583.94;1048939;28;854;-63
2021/11/17 03:15:34;;;;;;;;;;;;;;;13.83;70.11;101587.59;1049151;28;756;-63
2021/11/17 03:16:25;;;;;;;;;;;;;;;13.82;69.61;101584.03;1048950;28;1894;-63
2021/11/17 03:17:15;;;;;;;;;;;;;;;13.82;70.20;101584.03;1048970;28;879;-63
2021/11/17 03:18:06;;;;;;;;;;;;;;;13.82;69.70;101591.22;1048722;28;755;-63
2021/11/17 03:18:56;;;;;;;;;;;;;;;13.83;69.21;101590.25;1048895;28;867;-63
2021/11/17 03:19:47;;;;;;;;;;;;;;;13.82;69.61;101585.88;1047553;28;706;-63
2021/11/17 03:20:37;;;;;;;;;;;;;;;13.82;69.82;101585.88;1049007;28;638;-63
2021/11/17 03:21:28;;;;;;;;;;;;;;;13.82;69.55;101581.38;1048822;28;698;-63
2021/11/17 03:22:18;;;;;;;;;;;;;;;13.83;70.54;101582.22;1048991;28;807;-63
2021/11/17 03:23:08;;;;;;;;;;;;;;;13.81;70.16;101578.78;1048903;28;1738;-63
2021/11/17 03:23:59;;;;;;;;;;;;;;;13.81;69.95;101573.44;1049009;28;710;-62
2021/11/17 03:24:49;;;;;;;;;;;;;;;13.81;69.54;101568.06;1048578;28;717;-63
2021/11/17 03:25:40;;;;;;;;;;;;;;;13.82;69.77;101577.81;1048150;28;808;-62
2021/11/17 03:26:30;;;;;;;;;;;;;;;13.83;69.96;101582.22;1050186;28;634;-61
2021/11/17 03:27:21;;;;;;;;;;;;;;;13.82;69.63;101575.16;1053633;28;810;-62
2021/11/17 03:28:11;;;;;;;;;;;;;;;13.81;70.09;101578.78;1052500;28;873;-61
2021/11/17 03:29:01;;;;;;;;;;;;;;;13.82;70.18;101577.81;1052662;28;667;-61
2021/11/17 03:29:52;;;;;;;;;;;;;;;13.81;70.03;101578.78;1052405;28;736;-61
2021/11/17 03:30:42;;;;;;;;;;;;;;;13.82;69.97;101580.50;1052594;28;648;-62
2021/11/17 03:31:33;;;;;;;;;;;;;;;13.81;70.20;101581.47;1053557;28;768;-62
2021/11/17 03:32:23;;;;;;;;;;;;;;;13.81;69.61;101581.47;1052636;28;761;-62
2021/11/17 03:33:14;;;;;;;;;;;;;;;13.80;69.44;101577.94;1052367;28;743;-62
2021/11/17 03:34:04;;;;;;;;;;;;;;;13.80;70.18;101575.25;1052497;28;806;-62
2021/11/17 03:34:54;;;;;;;;;;;;;;;13.80;69.95;101577.94;1052566;28;703;-62
2021/11/17 03:35:45;;;;;;;;;;;;;;;13.81;69.35;101578.78;1052297;28;920;-62
2021/11/17 03:36:35;;;;;;;;;;;;;;;13.81;69.77;101584.16;1052423;28;1894;-62
2021/11/17 03:37:27;;;;;;;;;;;;;;;13.81;70.14;101585.00;1052210;28;989;-61
2021/11/17 03:38:18;;;;;;;;;;;;;;;13.81;69.79;101581.47;1052461;28;1894;-62
2021/11/17 03:39:09;;;;;;;;;;;;;;;13.81;69.63;101578.78;1052988;28;687;-62
2021/11/17 03:39:59;;;;;;;;;;;;;;;13.81;70.07;101581.47;1044524;28;858;-62
2021/11/17 03:40:50;;;;;;;;;;;;;;;13.80;69.91;101577.06;1049215;28;681;-62
2021/11/17 03:41:40;;;;;;;;;;;;;;;13.80;70.32;101585.97;1047793;28;716;-62
2021/11/17 03:42:30;;;;;;;;;;;;;;;13.80;69.68;101583.28;1048470;28;983;-63
2021/11/17 03:43:21;;;;;;;;;;;;;;;13.80;70.07;101579.75;1048809;28;831;-62
2021/11/17 03:44:11;;;;;;;;;;;;;;;13.80;69.55;101582.44;1048260;28;742;-63
2021/11/17 03:45:02;;;;;;;;;;;;;;;13.80;69.61;101583.28;1048782;28;821;-63
2021/11/17 03:45:52;;;;;;;;;;;;;;;13.81;70.31;101581.47;1048410;28;860;-63
2021/11/17 03:46:43;;;;;;;;;;;;;;;13.80;69.64;101574.38;1048673;28;1601;-63
2021/11/17 03:47:33;;;;;;;;;;;;;;;13.79;69.19;101576.22;1048221;28;598;-63
2021/11/17 03:48:23;;;;;;;;;;;;;;;13.79;69.60;101575.38;1048416;28;848;-63
2021/11/17 03:49:14;;;;;;;;;;;;;;;13.80;69.60;101566.34;1048103;28;692;-62
2021/11/17 03:50:04;;;;;;;;;;;;;;;13.79;69.44;101568.16;1044941;28;1303;-63
2021/11/17 03:50:55;;;;;;;;;;;;;;;13.80;69.19;101566.34;1049048;28;1750;-62
2021/11/17 03:51:45;;;;;;;;;;;;;;;13.80;69.73;101566.34;1056324;28;621;-62
2021/11/17 03:52:36;;;;;;;;;;;;;;;13.79;70.25;101562.00;1056573;28;940;-62
2021/11/17 03:53:26;;;;;;;;;;;;;;;13.79;69.76;101564.66;1056559;28;622;-63
2021/11/17 03:54:16;;;;;;;;;;;;;;;13.79;69.10;101560.13;1056810;28;782;-62
2021/11/17 03:55:07;;;;;;;;;;;;;;;13.78;69.39;101560.25;1056411;28;637;-63
2021/11/17 03:55:58;;;;;;;;;;;;;;;13.79;69.28;101570.03;1056647;28;701;-62
2021/11/17 03:56:48;;;;;;;;;;;;;;;13.80;70.14;101561.84;1056506;28;811;-62
2021/11/17 03:57:39;;;;;;;;;;;;;;;13.80;70.11;101561.00;1056829;28;646;-60
2021/11/17 03:58:29;;;;;;;;;;;;;;;13.79;69.73;101562.81;1056326;28;830;-61
2021/11/17 03:59:19;;;;;;;;;;;;;;;13.79;69.30;101559.31;1056336;28;716;-62
2021/11/17 04:00:10;;;;;;;;;;;;;;;13.78;69.45;101557.59;1056535;28;729;-61
2021/11/17 04:01:00;;;;;;;;;;;;;;;13.79;69.45;101564.66;1053454;28;1617;-65
2021/11/17 04:01:51;;;;;;;;;;;;;;;13.79;70.20;101554.78;1052823;28;1580;-64
2021/11/17 04:02:41;;;;;;;;;;;;;;;13.79;69.96;101562.81;1052706;28;1928;-65
2021/11/17 04:03:32;;;;;;;;;;;;;;;13.79;69.56;101559.31;1053008;28;1493;-64
2021/11/17 04:04:22;;;;;;;;;;;;;;;13.78;69.46;101557.59;1052773;28;1383;-65
2021/11/17 04:05:13;;;;;;;;;;;;;;;13.78;70.03;101552.22;1052903;28;1346;-64
2021/11/17 04:06:03;;;;;;;;;;;;;;;13.79;69.93;101553.94;1052200;28;1590;-64
2021/11/17 04:06:53;;;;;;;;;;;;;;;13.78;69.46;101552.22;1052490;28;945;-64
2021/11/17 04:07:44;;;;;;;;;;;;;;;13.78;69.97;101549.56;1052148;28;1453;-63
2021/11/17 04:08:34;;;;;;;;;;;;;;;13.79;69.68;101548.59;1052503;28;641;-64
2021/11/17 04:09:25;;;;;;;;;;;;;;;13.77;69.99;101540.66;1052225;28;725;-65
2021/11/17 04:10:15;;;;;;;;;;;;;;;13.78;69.55;101537.00;1052546;28;768;-64
2021/11/17 04:11:06;;;;;;;;;;;;;;;13.79;69.93;101544.06;1052234;28;855;-65
2021/11/17 04:11:56;;;;;;;;;;;;;;;13.79;70.55;101545.91;1052455;28;775;-65
2021/11/17 04:12:47;;;;;;;;;;;;;;;13.79;70.24;101538.69;1052279;28;634;-65
2021/11/17 04:13:37;;;;;;;;;;;;;;;13.80;69.70;101540.41;1052243;28;841;-65
2021/11/17 04:14:28;;;;;;;;;;;;;;;13.80;70.69;101536.88;1052452;28;1841;-62
2021/11/17 04:15:18;;;;;;;;;;;;;;;13.80;70.17;101529.72;1052069;28;1998;-62
2021/11/17 04:16:08;;;;;;;;;;;;;;;13.79;69.71;101533.34;1056399;28;771;-61
2021/11/17 04:16:59;;;;;;;;;;;;;;;13.79;70.00;101535.19;1056245;28;814;-61
2021/11/17 04:17:50;;;;;;;;;;;;;;;13.79;70.83;101537.88;1056669;28;691;-62
2021/11/17 04:18:41;;;;;;;;;;;;;;;13.79;70.64;101544.06;1056280;28;751;-62
2021/11/17 04:19:31;;;;;;;;;;;;;;;13.79;70.30;101537.88;1056267;28;737;-63
2021/11/17 04:20:21;;;;;;;;;;;;;;;13.78;70.88;101534.34;1056435;28;808;-63
2021/11/17 04:21:12;;;;;;;;;;;;;;;13.79;70.02;101543.22;1056325;28;805;-63
2021/11/17 04:22:02;;;;;;;;;;;;;;;13.79;69.90;101540.56;1056611;28;671;-63
2021/11/17 04:22:53;;;;;;;;;;;;;;;13.79;70.30;101540.56;1056931;28;739;-63
2021/11/17 04:23:43;;;;;;;;;;;;;;;13.79;70.13;101535.19;1056277;28;780;-63
2021/11/17 04:24:34;;;;;;;;;;;;;;;13.78;70.45;101547.72;1056518;28;842;-63
2021/11/17 04:25:24;;;;;;;;;;;;;;;13.79;70.50;101535.19;1056384;28;689;-63
2021/11/17 04:26:15;;;;;;;;;;;;;;;13.77;70.88;101532.63;1056606;28;679;-64
2021/11/17 04:27:06;;;;;;;;;;;;;;;13.77;70.07;101529.09;1051655;28;784;-62
2021/11/17 04:27:56;;;;;;;;;;;;;;;13.78;70.93;101530.81;1052831;28;857;-63
2021/11/17 04:28:46;;;;;;;;;;;;;;;13.77;70.52;101524.59;1056587;28;796;-63
2021/11/17 04:29:37;;;;;;;;;;;;;;;13.78;70.04;101530.81;1052607;28;728;-62
2021/11/17 04:30:27;;;;;;;;;;;;;;;13.78;69.96;101530.81;1051321;28;700;-63
2021/11/17 04:31:18;;;;;;;;;;;;;;;13.77;70.47;101531.75;1051943;28;744;-63
2021/11/17 04:32:08;;;;;;;;;;;;;;;13.78;70.69;101526.31;1052774;28;930;-63
2021/11/17 04:32:58;;;;;;;;;;;;;;;13.77;70.11;101529.94;1052537;28;726;-62
2021/11/17 04:33:49;;;;;;;;;;;;;;;13.77;70.35;101534.44;1052841;28;685;-63
2021/11/17 04:34:39;;;;;;;;;;;;;;;13.78;70.36;101536.16;1052346;28;714;-62
2021/11/17 04:35:30;;;;;;;;;;;;;;;13.77;70.21;101534.44;1052414;28;654;-62
2021/11/17 04:36:21;;;;;;;;;;;;;;;13.77;70.66;101534.44;1052051;28;1914;-62
2021/11/17 04:37:11;;;;;;;;;;;;;;;13.78;70.96;101533.47;1052487;28;743;-62
2021/11/17 04:38:02;;;;;;;;;;;;;;;13.78;69.96;101533.47;1052241;28;736;-63
2021/11/17 04:38:52;;;;;;;;;;;;;;;13.77;70.82;101535.28;1052478;28;633;-63
2021/11/17 04:39:43;;;;;;;;;;;;;;;13.77;70.78;101529.09;1052118;28;700;-62
2021/11/17 04:40:33;;;;;;;;;;;;;;;13.76;70.19;101533.59;1052221;28;712;-61
2021/11/17 04:41:24;;;;;;;;;;;;;;;13.76;70.76;101525.53;1052434;28;642;-62
2021/11/17 04:42:14;;;;;;;;;;;;;;;13.76;70.75;101530.91;1052268;28;850;-62
2021/11/17 04:43:04;;;;;;;;;;;;;;;13.76;70.93;101538.06;1052466;28;878;-62
2021/11/17 04:43:55;;;;;;;;;;;;;;;13.77;70.39;101529.09;1053886;28;1728;-62
2021/11/17 04:44:45;;;;;;;;;;;;;;;13.76;70.85;101543.44;1056481;28;866;-63
2021/11/17 04:45:36;;;;;;;;;;;;;;;13.76;70.82;101533.59;1056703;28;650;-62
2021/11/17 04:46:26;;;;;;;;;;;;;;;13.75;70.95;101536.34;1054847;28;1558;-61
2021/11/17 04:47:16;;;;;;;;;;;;;;;13.75;70.96;101533.69;1052264;28;787;-62
2021/11/17 04:48:07;;;;;;;;;;;;;;;13.76;70.72;101532.72;1052231;28;740;-62
2021/11/17 04:48:57;;;;;;;;;;;;;;;13.76;70.41;101538.06;1053858;28;1769;-62
2021/11/17 04:49:48;;;;;;;;;;;;;;;13.77;70.48;101539.78;1052443;28;1320;-62
2021/11/17 04:50:38;;;;;;;;;;;;;;;13.76;70.82;101538.94;1052044;28;846;-62
2021/11/17 04:51:28;;;;;;;;;;;;;;;13.76;70.55;101536.25;1052423;28;650;-62
2021/11/17 04:52:19;;;;;;;;;;;;;;;13.75;70.34;101541.72;1052102;28;774;-62
2021/11/17 04:53:09;;;;;;;;;;;;;;;13.74;70.69;101540.00;1052273;28;705;-62
2021/11/17 04:54:00;;;;;;;;;;;;;;;13.75;70.75;101542.56;1053484;28;740;-62
2021/11/17 04:54:50;;;;;;;;;;;;;;;13.76;70.61;101543.44;1052357;28;874;-62
2021/11/17 04:55:41;;;;;;;;;;;;;;;13.75;70.75;101545.25;1052794;28;724;-63
2021/11/17 04:56:31;;;;;;;;;;;;;;;13.75;70.97;101541.72;1053484;28;1963;-62
2021/11/17 04:57:22;;;;;;;;;;;;;;;13.75;70.87;101542.56;1056649;28;904;-62
2021/11/17 04:58:12;;;;;;;;;;;;;;;13.76;70.08;101543.44;1056388;28;777;-62
2021/11/17 04:59:02;;;;;;;;;;;;;;;13.75;70.86;101547.94;1056357;28;771;-62
2021/11/17 04:59:53;;;;;;;;;;;;;;;13.75;70.61;101547.06;1056327;28;697;-62
2021/11/17 05:00:43;;;;;;;;;;;;;;;13.75;70.87;101545.25;1056509;28;700;-62
2021/11/17 05:01:34;;;;;;;;;;;;;;;13.75;70.58;101537.22;1056690;28;762;-62
2021/11/17 05:02:24;;;;;;;;;;;;;;;13.74;70.85;101540.00;1052012;28;701;-62
2021/11/17 05:03:15;;;;;;;;;;;;;;;13.74;70.13;101538.19;1047914;28;832;-62
2021/11/17 05:04:05;;;;;;;;;;;;;;;13.74;70.16;101538.19;1048867;28;770;-62
2021/11/17 05:04:55;;;;;;;;;;;;;;;13.75;70.19;101547.06;1052544;28;716;-63
2021/11/17 05:05:46;;;;;;;;;;;;;;;13.75;70.05;101541.72;1056259;28;806;-62
2021/11/17 05:06:37;;;;;;;;;;;;;;;13.75;70.19;101542.56;1056613;28;712;-62
2021/11/17 05:07:27;;;;;;;;;;;;;;;13.75;70.16;101544.41;1056213;28;1408;-63
2021/11/17 05:08:17;;;;;;;;;;;;;;;13.75;70.16;101536.34;1056510;28;690;-63
2021/11/17 05:09:08;;;;;;;;;;;;;;;13.76;70.19;101543.44;1057552;28;821;-63
2021/11/17 05:09:58;;;;;;;;;;;;;;;13.75;70.76;101537.22;1056434;28;810;-63
2021/11/17 05:10:49;;;;;;;;;;;;;;;13.76;70.41;101538.94;1057405;28;647;-63
2021/11/17 05:11:39;;;;;;;;;;;;;;;13.77;70.07;101535.28;1054806;28;1791;-63
2021/11/17 05:12:29;;;;;;;;;;;;;;;13.79;70.43;101538.69;1053261;28;721;-63
2021/11/17 05:13:20;;;;;;;;;;;;;;;13.81;69.71;101533.25;1054227;28;747;-63
2021/11/17 05:14:10;;;;;;;;;;;;;;;13.84;69.55;101533.03;1053116;28;648;-63
2021/11/17 05:15:01;;;;;;;;;;;;;;;13.86;70.38;101531.97;1053407;28;818;-63
2021/11/17 05:15:51;;;;;;;;;;;;;;;13.88;69.94;101534.56;1052973;28;858;-63
2021/11/17 05:16:42;;;;;;;;;;;;;;;13.92;69.73;101533.41;1053170;28;1963;-63
2021/11/17 05:17:32;;;;;;;;;;;;;;;13.94;70.17;101531.47;1053042;28;705;-63
2021/11/17 05:18:22;;;;;;;;;;;;;;;13.99;69.70;101528.47;1052990;28;773;-63
2021/11/17 05:19:13;;;;;;;;;;;;;;;14.01;69.93;101532.75;1052881;28;834;-63
2021/11/17 05:20:03;;;;;;;;;;;;;;;14.04;69.15;101532.56;1053072;28;1696;-63
2021/11/17 05:20:54;;;;;;;;;;;;;;;14.06;69.91;101533.31;1053225;28;716;-63
2021/11/17 05:21:44;;;;;;;;;;;;;;;14.09;69.63;101530.41;1053019;28;706;-63
2021/11/17 05:22:34;;;;;;;;;;;;;;;14.13;69.89;101536.44;1053010;28;1040;-63
2021/11/17 05:23:25;;;;;;;;;;;;;;;14.15;69.44;101540.69;1052903;28;720;-63
2021/11/17 05:24:15;;;;;;;;;;;;;;;14.19;69.73;101546.72;1052902;28;881;-63
2021/11/17 05:25:06;;;;;;;;;;;;;;;14.22;69.46;101546.50;1053351;28;778;-62
2021/11/17 05:25:56;;;;;;;;;;;;;;;14.24;69.49;101544.59;1052983;28;749;-62
2021/11/17 05:26:47;;;;;;;;;;;;;;;14.25;68.64;101541.81;1053724;28;719;-62
2021/11/17 05:27:37;;;;;;;;;;;;;;;14.28;69.35;101540.72;1052548;28;677;-62
2021/11/17 05:28:27;;;;;;;;;;;;;;;14.31;68.78;101539.66;1052432;28;924;-62
2021/11/17 05:29:18;;;;;;;;;;;;;;;14.33;69.41;101541.25;1052686;28;663;-62
2021/11/17 05:30:08;;;;;;;;;;;;;;;14.35;68.99;101544.69;1052451;28;805;-63
2021/11/17 05:30:59;;;;;;;;;;;;;;;14.34;69.40;101542.97;1045373;28;689;-62
2021/11/17 05:31:49;;;;;;;;;;;;;;;14.36;69.39;101545.53;1045768;28;642;-61
2021/11/17 05:32:39;;;;;;;;;;;;;;;14.37;69.63;101529.34;1052880;28;1950;-62
2021/11/17 05:33:30;;;;;;;;;;;;;;;14.37;69.42;101539.22;1056943;28;716;-61
2021/11/17 05:34:20;;;;;;;;;;;;;;;14.37;68.71;101539.22;1057080;28;924;-62
2021/11/17 05:35:11;;;;;;;;;;;;;;;14.38;69.11;101541.78;1057136;28;743;-62
2021/11/17 05:36:01;;;;;;;;;;;;;;;14.40;68.94;101533.66;1057015;28;852;-62
2021/11/17 05:36:52;;;;;;;;;;;;;;;14.41;69.49;101538.06;1057234;28;845;-63
2021/11/17 05:37:42;;;;;;;;;;;;;;;14.42;68.74;101537.13;1056990;28;1034;-62
2021/11/17 05:38:33;;;;;;;;;;;;;;;14.43;69.07;101539.69;1057034;28;762;-61
2021/11/17 05:39:24;;;;;;;;;;;;;;;14.42;69.53;101537.97;1056777;28;830;-62
2021/11/17 05:40:14;;;;;;;;;;;;;;;14.43;69.60;101545.06;1056993;28;685;-61
2021/11/17 05:41:05;;;;;;;;;;;;;;;14.44;69.13;101540.56;1056870;28;1760;-62
2021/11/17 05:41:56;;;;;;;;;;;;;;;14.43;68.94;101549.56;1053378;28;1604;-62
2021/11/17 05:42:47;;;;;;;;;;;;;;;14.42;68.86;101545.16;1057084;28;782;-62
2021/11/17 05:43:37;;;;;;;;;;;;;;;14.43;69.15;101541.53;1056866;28;797;-62
2021/11/17 05:44:28;;;;;;;;;;;;;;;14.45;69.14;101545.81;1057255;28;724;-62
2021/11/17 05:45:18;;;;;;;;;;;;;;;14.45;69.54;101542.28;1056885;28;757;-62
2021/11/17 05:46:08;;;;;;;;;;;;;;;14.45;69.10;101539.59;1057073;28;728;-62
2021/11/17 05:46:59;;;;;;;;;;;;;;;14.44;69.50;101537.88;1052999;28;767;-61
2021/11/17 05:47:49;;;;;;;;;;;;;;;14.45;69.01;101536.91;1052681;28;944;-61
2021/11/17 05:48:40;;;;;;;;;;;;;;;14.44;69.20;101533.38;1053043;28;946;-61
2021/11/17 05:49:30;;;;;;;;;;;;;;;14.45;69.42;101535.09;1052922;28;838;-63
2021/11/17 05:50:21;;;;;;;;;;;;;;;14.44;69.10;101538.72;1053106;28;847;-63
2021/11/17 05:51:11;;;;;;;;;;;;;;;14.44;69.35;101535.19;1052797;28;751;-63
2021/11/17 05:52:02;;;;;;;;;;;;;;;14.45;69.33;101537.78;1053038;28;779;-62
2021/11/17 05:52:52;;;;;;;;;;;;;;;14.45;69.17;101536.91;1056124;28;1041;-62
2021/11/17 05:53:44;;;;;;;;;;;;;;;14.45;69.12;101531.53;1052904;28;834;-61
2021/11/17 05:54:34;;;;;;;;;;;;;;;14.47;69.01;101527.78;1053354;28;931;-61
2021/11/17 05:55:24;;;;;;;;;;;;;;;14.44;69.19;101529.81;1057420;28;783;-63
2021/11/17 05:56:16;;;;;;;;;;;;;;;14.42;69.43;101532.63;1053358;28;1675;-62
2021/11/17 05:57:06;;;;;;;;;;;;;;;14.42;69.82;101537.97;1051955;28;703;-63
2021/11/17 05:57:57;;;;;;;;;;;;;;;14.43;69.64;101536.16;1052233;28;741;-63
2021/11/17 05:58:47;;;;;;;;;;;;;;;14.43;69.52;101538.84;1052499;28;754;-63
2021/11/17 05:59:37;;;;;;;;;;;;;;;14.41;69.00;101536.25;1051831;28;2172;-64
2021/11/17 06:00:28;;;;;;;;;;;;;;;14.40;69.47;101534.53;1053772;28;1688;-64
2021/11/17 06:01:18;;;;;;;;;;;;;;;14.39;69.74;101537.28;1052959;28;698;-64
2021/11/17 06:02:09;;;;;;;;;;;;;;;14.39;69.31;101531.94;1053096;28;732;-64
2021/11/17 06:02:59;;;;;;;;;;;;;;;14.39;69.13;101531.94;1052772;28;734;-64
2021/11/17 06:03:50;;;;;;;;;;;;;;;14.36;69.83;101538.38;1053285;28;943;-64
2021/11/17 06:04:40;;;;;;;;;;;;;;;14.37;69.72;101540.06;1052853;28;622;-64
2021/11/17 06:05:31;;;;;;;;;;;;;;;14.36;69.17;101549.09;1052904;28;818;-62
2021/11/17 06:06:22;;;;;;;;;;;;;;;14.36;69.86;101542.88;1052719;28;840;-62
2021/11/17 06:07:12;;;;;;;;;;;;;;;14.35;69.44;101544.69;1053038;28;807;-63
2021/11/17 06:08:03;;;;;;;;;;;;;;;14.34;69.93;101544.78;1052788;28;1513;-63
2021/11/17 06:08:56;;;;;;;;;;;;;;;14.34;69.04;101550.16;1056943;28;1582;-64
2021/11/17 06:09:47;;;;;;;;;;;;;;;14.34;68.93;101550.16;1053460;28;1595;-62
2021/11/17 06:10:37;;;;;;;;;;;;;;;14.34;69.30;101547.47;1053270;28;1517;-64
2021/11/17 06:11:28;;;;;;;;;;;;;;;14.32;70.08;101552.97;1053458;28;656;-63
2021/11/17 06:12:18;;;;;;;;;;;;;;;14.33;69.33;101549.28;1053746;28;949;-65
2021/11/17 06:13:08;;;;;;;;;;;;;;;14.33;69.89;101554.66;1052308;28;750;-63
2021/11/17 06:13:59;;;;;;;;;;;;;;;14.31;69.78;101556.63;1052346;28;1786;-63
2021/11/17 06:14:49;;;;;;;;;;;;;;;14.30;69.17;101554.91;1053297;28;1567;-62
2021/11/17 06:15:40;;;;;;;;;;;;;;;14.29;69.29;101563.03;1053374;28;1489;-63
2021/11/17 06:16:30;;;;;;;;;;;;;;;14.29;69.84;101555.00;1053178;28;1897;-63
2021/11/17 06:17:20;;;;;;;;;;;;;;;14.29;69.31;101557.69;1049847;28;1625;-62
2021/11/17 06:18:11;;;;;;;;;;;;;;;14.28;69.38;101558.63;1051880;28;1575;-63
2021/11/17 06:19:01;;;;;;;;;;;;;;;14.28;69.82;101561.31;1053522;28;1491;-63
2021/11/17 06:19:52;;;;;;;;;;;;;;;14.28;69.51;101566.69;1057259;28;649;-64
2021/11/17 06:20:42;;;;;;;;;;;;;;;14.25;69.17;101565.94;1056939;28;939;-63
2021/11/17 06:21:33;;;;;;;;;;;;;;;14.25;70.01;101565.06;1055909;28;1209;-63
2021/11/17 06:22:23;;;;;;;;;;;;;;;14.25;69.69;101567.75;1052448;28;980;-64
2021/11/17 06:23:14;;;;;;;;;;;;;;;14.26;69.94;101569.47;1052795;28;568;-63
2021/11/17 06:24:04;;;;;;;;;;;;;;;14.23;69.81;101562.50;1055237;28;1807;-63
2021/11/17 06:24:55;;;;;;;;;;;;;;;14.23;69.54;101562.50;1053504;28;821;-63
2021/11/17 06:25:45;;;;;;;;;;;;;;;14.24;69.69;101558.84;1052624;28;618;-63
2021/11/17 06:26:35;;;;;;;;;;;;;;;14.28;70.19;101566.69;1052247;28;961;-63
2021/11/17 06:27:26;;;;;;;;;;;;;;;14.31;71.25;101570.03;1052331;28;619;-63
2021/11/17 06:28:16;;;;;;;;;;;;;;;14.32;72.05;101568.19;1052558;28;798;-63
2021/11/17 06:29:07;;;;;;;;;;;;;;;14.35;72.53;101562.59;1053105;28;1450;-63
2021/11/17 06:30:00;;;;;;;;;;;;;;;14.36;73.53;101569.69;1052220;28;1386;-63
2021/11/17 06:30:50;;;;;;;;;;;;;;;14.38;73.63;101568.59;1052508;28;1470;-63
2021/11/17 06:31:41;;;;;;;;;;;;;;;14.40;74.90;101563.16;1052950;28;1730;-63
2021/11/17 06:32:31;;;;;;;;;;;;;;;14.41;74.76;101567.56;1055426;28;1537;-63
2021/11/17 06:33:22;;;;;;;;;;;;;;;14.41;75.20;101571.13;1055995;28;1353;-62
2021/11/17 06:34:12;;;;;;;;;;;;;;;14.40;74.32;101564.03;1052377;28;1479;-62
2021/11/17 06:35:03;;;;;;;;;;;;;;;14.39;74.32;101559.59;1052945;28;1379;-62
2021/11/17 06:35:53;;;;;;;;;;;;;;;14.39;74.24;101561.44;1053024;28;1389;-63
2021/11/17 06:36:44;;;;;;;;;;;;;;;14.37;74.05;101555.31;1052205;28;1906;-63
2021/11/17 06:37:34;;;;;;;;;;;;;;;14.36;74.23;101557.13;1053091;28;1402;-64
2021/11/17 06:38:27;;;;;;;;;;;;;;;14.36;73.55;101558.94;1053192;28;1529;-62
2021/11/17 06:39:18;;;;;;;;;;;;;;;14.35;73.41;101567.97;1054966;28;1478;-63
2021/11/17 06:40:12;;;;;;;;;;;;;;;14.34;73.57;101569.78;1053912;28;1485;-62
2021/11/17 06:41:03;;;;;;;;;;;;;;;14.33;73.12;101560.03;1053348;28;1561;-63
2021/11/17 06:41:53;;;;;;;;;;;;;;;14.32;72.74;101558.34;1051951;28;1523;-63
2021/11/17 06:42:44;;;;;;;;;;;;;;;14.32;73.53;101568.19;1054976;28;1455;-63
2021/11/17 06:43:34;;;;;;;;;;;;;;;14.31;73.48;101571.84;1053434;28;1583;-63
2021/11/17 06:44:24;;;;;;;;;;;;;;;14.29;72.97;101573.75;1055988;28;1379;-64
2021/11/17 06:45:15;;;;;;;;;;;;;;;14.27;73.03;101563.16;1053387;28;1651;-63
2021/11/17 06:46:05;;;;;;;;;;;;;;;14.26;72.62;101572.16;1054115;28;1480;-63
2021/11/17 06:46:56;;;;;;;;;;;;;;;14.24;72.49;101569.56;1053198;28;1567;-63
2021/11/17 06:47:46;;;;;;;;;;;;;;;14.23;72.43;101562.50;1052970;28;1460;-63
2021/11/17 06:48:37;;;;;;;;;;;;;;;14.23;72.70;101567.00;1053299;28;1578;-63
2021/11/17 06:49:27;;;;;;;;;;;;;;;14.22;72.96;101574.19;1053156;28;954;-63
2021/11/17 06:50:17;;;;;;;;;;;;;;;14.20;72.42;101562.69;1051879;28;1619;-63
2021/11/17 06:51:08;;;;;;;;;;;;;;;14.20;72.23;101565.38;1052962;28;764;-63